Terminal Aerodrome Forecast
Issued by NWS

Home | Current Version | Previous Version | Graphics & Text | Print | Product List | Glossary On
Versions: 1 2 3 4 5 6 7 8 9 10 11 12 13 14 15 16 17 18 19 20 21 22 23
743
FTUS43 KIWX 091142 AAC
TAFSBN
TAF AMD
KSBN 091142Z 0912/1012 22009KT 3SM -SN BKN035
      TEMPO 0912/0916 2SM -SN BKN015
     FM091600 26010KT 4SM -SN OVC020
     FM091900 32012G21KT 2SM -SHSN BLSN OVC015
     FM100500 29008KT P6SM -SHSN BKN020
     FM101000 25009KT P6SM BKN080=

USA.gov is the U.S. government's official web portal to all federal, state and local government web resources and services.